Elsie, Oregon
Current Conditions -  °F | °C
As of 11:55 AM on Tuesday 21 Oct 2014 (Local Time) from KAST Reporting Station
Broken Clouds Broken Clouds  
Wind Chill: 62°   Ceiling: 7000
Heat Index: 62°   Visibility: 10mi
Dew Point: 54°   Wind: 13mph
Humidity: 75%   Direction: 180°S
Pressure: 29.92"   Gusts: 24mph
Location:  45.8905°N, 123.667°W
Report Text: KAST 211855Z AUTO 18011G21KT 10SM FEW034 BKN070 17/12 A2992 RMK AO2 RAB1759E34 SLP131 P0000 T01670122
Loading
Personal Weather Stations






























Interactive Weather Map
Tropical Storm Tracking
New forecast layout! Learn more

10-Day Weather Forecast

Advertisements
Track Severe Weather on mobile